Time;durP1;ratioP1;P1;durP2;ratioP2;P2;SDS_P1;SDS_P2;PMS_P1;PMS_P2;Temp;Humidity;BMP_temperature;BMP_pressure;BME280_temperature;BME280_humidity;BME280_pressure;Samples;Min_cycle;Max_cycle;Signal;HPM_P1;HPM_P2
2021/11/09 00:01:51;;;;;;;7.00;2.22;;;;;;;;;;5155127;27;20014;-65
2021/11/09 00:04:19;;;;;;;6.05;2.15;;;;;;;;;;5158143;27;20033;-72
2021/11/09 00:06:54;;;;;;;5.00;2.03;;;;;;;;;;5139344;27;20107;-67
2021/11/09 00:09:20;;;;;;;5.10;2.35;;;;;;;;;;5138757;27;20030;-71
2021/11/09 00:11:47;;;;;;;6.65;2.50;;;;;;;;;;5116799;28;20084;-66
2021/11/09 00:14:13;;;;;;;4.70;2.00;;;;;;;;;;5116403;28;20028;-65
2021/11/09 00:16:39;;;;;;;6.88;2.22;;;;;;;;;;5134517;27;20023;-67
2021/11/09 00:19:05;;;;;;;5.65;2.35;;;;;;;;;;5136816;27;20043;-65
2021/11/09 00:21:31;;;;;;;5.88;2.25;;;;;;;;;;5137095;27;20049;-66
2021/11/09 00:24:00;;;;;;;11.68;2.08;;;;;;;;;;5136789;27;20024;-65
2021/11/09 00:26:27;;;;;;;6.35;1.90;;;;;;;;;;5136247;27;20489;-65
2021/11/09 00:28:53;;;;;;;6.55;2.10;;;;;;;;;;5136597;27;20023;-66
2021/11/09 00:31:19;;;;;;;7.15;2.00;;;;;;;;;;5136721;27;20493;-70
2021/11/09 00:33:45;;;;;;;8.55;2.40;;;;;;;;;;5136560;27;20031;-66
2021/11/09 00:36:11;;;;;;;7.00;1.98;;;;;;;;;;5136703;27;20030;-65
2021/11/09 00:38:37;;;;;;;7.07;2.00;;;;;;;;;;5136685;27;20022;-65
2021/11/09 00:41:04;;;;;;;4.85;2.00;;;;;;;;;;5136677;27;20019;-65
2021/11/09 00:43:30;;;;;;;8.15;2.30;;;;;;;;;;5112403;28;20032;-67
2021/11/09 00:45:56;;;;;;;8.93;2.22;;;;;;;;;;5116153;28;20080;-64
2021/11/09 00:48:23;;;;;;;3.42;1.58;;;;;;;;;;5116266;28;20038;-65
2021/11/09 00:50:49;;;;;;;15.57;2.25;;;;;;;;;;5115996;28;20034;-67
2021/11/09 00:53:17;;;;;;;10.38;2.15;;;;;;;;;;5115656;28;20415;-64
2021/11/09 00:55:43;;;;;;;6.97;2.22;;;;;;;;;;5115423;28;20047;-65
2021/11/09 00:58:09;;;;;;;16.45;2.60;;;;;;;;;;5115459;28;20463;-65
2021/11/09 01:00:35;;;;;;;8.60;2.13;;;;;;;;;;5119968;27;20449;-68
2021/11/09 01:03:02;;;;;;;5.47;2.20;;;;;;;;;;5115489;28;20474;-65
2021/11/09 01:05:30;;;;;;;17.23;3.33;;;;;;;;;;5115538;28;20398;-66
2021/11/09 01:07:58;;;;;;;9.40;2.40;;;;;;;;;;5115395;28;20074;-69
2021/11/09 01:10:26;;;;;;;13.18;2.17;;;;;;;;;;5115506;28;20028;-65
2021/11/09 01:12:52;;;;;;;7.13;2.13;;;;;;;;;;5115452;28;20026;-67
2021/11/09 01:15:19;;;;;;;8.27;2.20;;;;;;;;;;5115113;28;20134;-68
2021/11/09 01:17:45;;;;;;;8.98;2.30;;;;;;;;;;5133577;27;20426;-64
2021/11/09 01:20:12;;;;;;;11.85;2.65;;;;;;;;;;5135781;27;20058;-64
2021/11/09 01:22:39;;;;;;;6.50;1.80;;;;;;;;;;5135662;27;20426;-64
2021/11/09 01:25:05;;;;;;;6.07;2.50;;;;;;;;;;5135717;27;20031;-64
2021/11/09 01:27:32;;;;;;;16.63;2.28;;;;;;;;;;5135911;27;20043;-64
2021/11/09 01:29:58;;;;;;;8.63;2.00;;;;;;;;;;5135850;27;20027;-65
2021/11/09 01:32:24;;;;;;;9.77;2.03;;;;;;;;;;5135393;27;20039;-69
2021/11/09 01:34:50;;;;;;;7.25;2.42;;;;;;;;;;5135153;27;20536;-69
2021/11/09 01:37:16;;;;;;;8.90;2.78;;;;;;;;;;5135578;27;20027;-64
2021/11/09 01:39:42;;;;;;;10.20;2.33;;;;;;;;;;5135395;27;20037;-64
2021/11/09 01:42:08;;;;;;;6.00;2.00;;;;;;;;;;5135337;27;20629;-65
2021/11/09 01:44:34;;;;;;;7.15;1.95;;;;;;;;;;5135463;27;20070;-64
2021/11/09 01:47:00;;;;;;;8.95;2.28;;;;;;;;;;5135192;27;20030;-65
2021/11/09 01:49:26;;;;;;;7.22;1.92;;;;;;;;;;5113682;27;20023;-64
2021/11/09 01:51:53;;;;;;;8.15;2.72;;;;;;;;;;5096547;28;20031;-65
2021/11/09 01:54:19;;;;;;;7.82;2.22;;;;;;;;;;5114538;28;20042;-68
2021/11/09 01:56:46;;;;;;;6.82;2.22;;;;;;;;;;5114320;28;20031;-66
2021/11/09 01:59:12;;;;;;;9.02;2.15;;;;;;;;;;5114854;28;20042;-65
2021/11/09 02:01:38;;;;;;;6.30;2.10;;;;;;;;;;5148748;27;20389;-66
2021/11/09 02:04:07;;;;;;;6.38;1.90;;;;;;;;;;5156205;27;20110;-65
2021/11/09 02:06:34;;;;;;;6.30;1.70;;;;;;;;;;5135421;27;20118;-64
2021/11/09 02:09:02;;;;;;;4.70;1.80;;;;;;;;;;5135100;27;20019;-65
2021/11/09 02:11:28;;;;;;;6.30;2.08;;;;;;;;;;5116448;27;20034;-64
2021/11/09 02:13:54;;;;;;;5.10;2.30;;;;;;;;;;5116365;27;20394;-65
2021/11/09 02:16:20;;;;;;;9.70;1.88;;;;;;;;;;5134619;27;20382;-69
2021/11/09 02:18:46;;;;;;;8.50;1.73;;;;;;;;;;5134063;27;20062;-66
2021/11/09 02:21:12;;;;;;;9.25;2.05;;;;;;;;;;5134510;27;20355;-71
2021/11/09 02:23:43;;;;;;;10.45;2.33;;;;;;;;;;5122779;27;20028;-64
2021/11/09 02:26:10;;;;;;;4.47;1.67;;;;;;;;;;5113967;28;20023;-66
2021/11/09 02:28:37;;;;;;;10.82;1.80;;;;;;;;;;5095421;28;20041;-66
2021/11/09 02:31:04;;;;;;;3.28;1.60;;;;;;;;;;5113996;28;20015;-64
2021/11/09 02:33:30;;;;;;;6.72;1.90;;;;;;;;;;5113495;28;20024;-64
2021/11/09 02:35:56;;;;;;;8.10;2.17;;;;;;;;;;5113728;28;20536;-66
2021/11/09 02:38:22;;;;;;;6.80;2.10;;;;;;;;;;5095315;28;20023;-69
2021/11/09 02:40:48;;;;;;;5.68;1.80;;;;;;;;;;5113714;28;20079;-71
2021/11/09 02:43:16;;;;;;;2.97;1.70;;;;;;;;;;5113940;28;20024;-64
2021/11/09 02:48:34;;;;;;;4.00;1.65;;;;;;;;;;5113665;28;20112;-65
2021/11/09 02:51:14;;;;;;;4.13;1.70;;;;;;;;;;5095371;28;20064;-65
2021/11/09 02:56:55;;;;;;;3.72;1.70;;;;;;;;;;5113268;28;20477;-66
2021/11/09 02:59:22;;;;;;;5.00;2.05;;;;;;;;;;5107258;28;20050;-65
2021/11/09 03:02:01;;;;;;;5.65;1.90;;;;;;;;;;5151173;27;20023;-66
2021/11/09 03:04:37;;;;;;;5.25;1.88;;;;;;;;;;5154584;27;20015;-65
2021/11/09 03:07:07;;;;;;;4.35;1.88;;;;;;;;;;5154526;27;20022;-66
2021/11/09 03:09:44;;;;;;;4.35;1.63;;;;;;;;;;5135954;27;20488;-65
2021/11/09 03:12:11;;;;;;;3.30;1.90;;;;;;;;;;5105486;27;20165;-66
2021/11/09 03:14:38;;;;;;;9.15;1.88;;;;;;;;;;5113023;28;20028;-65
2021/11/09 03:17:14;;;;;;;7.95;2.22;;;;;;;;;;5113400;28;20096;-65
2021/11/09 03:19:49;;;;;;;2.97;1.58;;;;;;;;;;5095036;28;20047;-64
2021/11/09 03:47:10;;;;;;;4.70;2.10;;;;;;;;;;5116874;28;20043;-64
2021/11/09 03:49:37;;;;;;;4.65;1.75;;;;;;;;;;5116950;28;20050;-65
2021/11/09 03:52:10;;;;;;;4.75;1.80;;;;;;;;;;5116950;28;20471;-64
2021/11/09 03:54:36;;;;;;;6.07;1.88;;;;;;;;;;5116746;28;20531;-67
2021/11/09 03:57:10;;;;;;;4.38;2.00;;;;;;;;;;5117102;28;20048;-65
2021/11/09 03:59:53;;;;;;;9.18;2.00;;;;;;;;;;5116757;28;20019;-66
2021/11/09 04:02:32;;;;;;;5.13;1.80;;;;;;;;;;5124585;27;20068;-68
2021/11/09 04:05:05;;;;;;;4.28;1.70;;;;;;;;;;5117048;28;20054;-65
2021/11/09 04:07:40;;;;;;;5.15;1.95;;;;;;;;;;5116592;28;20689;-64
2021/11/09 04:10:20;;;;;;;4.00;1.77;;;;;;;;;;5100159;28;20019;-68
2021/11/09 04:12:53;;;;;;;5.03;1.98;;;;;;;;;;5116440;28;20049;-65
2021/11/09 04:18:15;;;;;;;5.07;2.20;;;;;;;;;;5137348;27;20122;-65
2021/11/09 05:11:26;;;;;;;4.57;2.60;;;;;;;;;;5136030;27;20034;-64
2021/11/09 05:13:52;;;;;;;5.40;2.53;;;;;;;;;;5117223;27;20389;-65
2021/11/09 05:16:18;;;;;;;5.35;2.78;;;;;;;;;;5135904;27;20027;-65
2021/11/09 05:18:44;;;;;;;9.82;2.70;;;;;;;;;;5135934;27;20054;-65
2021/11/09 05:21:10;;;;;;;14.55;2.42;;;;;;;;;;5136257;27;20023;-65
2021/11/09 05:23:37;;;;;;;8.60;2.80;;;;;;;;;;5136244;27;20023;-65
2021/11/09 05:26:03;;;;;;;10.23;2.92;;;;;;;;;;5134692;27;20080;-64
2021/11/09 05:28:29;;;;;;;7.35;3.25;;;;;;;;;;5135433;27;20031;-68
2021/11/09 05:30:55;;;;;;;8.05;2.67;;;;;;;;;;5117121;27;20052;-64
2021/11/09 05:33:22;;;;;;;6.50;3.50;;;;;;;;;;5135891;27;20076;-63
2021/11/09 05:35:50;;;;;;;5.85;3.20;;;;;;;;;;5135427;27;20023;-64
2021/11/09 05:38:18;;;;;;;6.30;3.13;;;;;;;;;;5135656;27;20019;-66
2021/11/09 05:40:52;;;;;;;14.20;3.30;;;;;;;;;;5135498;27;20031;-67
2021/11/09 05:43:19;;;;;;;9.65;3.28;;;;;;;;;;5119528;27;20111;-66
2021/11/09 05:45:45;;;;;;;8.70;3.42;;;;;;;;;;5115374;27;20020;-65
2021/11/09 05:48:11;;;;;;;15.32;4.93;;;;;;;;;;5118375;27;20027;-66
2021/11/09 05:50:37;;;;;;;39.97;5.80;;;;;;;;;;5115026;28;20107;-68
2021/11/09 05:53:03;;;;;;;18.60;5.53;;;;;;;;;;5114927;28;20447;-62
2021/11/09 05:55:30;;;;;;;11.80;3.92;;;;;;;;;;5113805;28;20040;-68
2021/11/09 05:57:56;;;;;;;11.05;3.22;;;;;;;;;;5114106;28;20356;-68
2021/11/09 06:00:22;;;;;;;11.50;4.20;;;;;;;;;;5132721;27;20469;-69
2021/11/09 06:02:49;;;;;;;12.45;4.30;;;;;;;;;;5156075;27;20027;-66
2021/11/09 06:05:16;;;;;;;11.48;4.40;;;;;;;;;;5137540;27;20033;-69
2021/11/09 06:07:45;;;;;;;18.30;5.00;;;;;;;;;;5145969;27;20053;-68
2021/11/09 06:10:12;;;;;;;15.32;4.35;;;;;;;;;;5116606;27;20019;-70
2021/11/09 06:12:38;;;;;;;11.88;5.07;;;;;;;;;;5133335;27;20028;-69
2021/11/09 06:15:07;;;;;;;10.93;4.43;;;;;;;;;;5116101;27;20033;-63
2021/11/09 06:17:33;;;;;;;11.02;4.47;;;;;;;;;;5114627;27;20510;-67
2021/11/09 06:19:59;;;;;;;10.60;4.20;;;;;;;;;;5134061;27;20086;-67
2021/11/09 06:22:25;;;;;;;13.82;4.78;;;;;;;;;;5116894;27;20035;-70
2021/11/09 06:24:51;;;;;;;14.48;5.05;;;;;;;;;;5134248;27;20354;-67
2021/11/09 06:27:18;;;;;;;18.75;4.57;;;;;;;;;;5136662;27;20028;-68
2021/11/09 06:29:44;;;;;;;17.33;4.88;;;;;;;;;;5137730;27;20090;-67
2021/11/09 06:32:10;;;;;;;13.68;4.45;;;;;;;;;;5127395;27;20046;-72
2021/11/09 06:34:36;;;;;;;9.63;4.00;;;;;;;;;;5114327;28;20113;-68
2021/11/09 06:37:03;;;;;;;10.88;4.43;;;;;;;;;;5124517;27;20419;-65
2021/11/09 06:39:29;;;;;;;10.65;4.50;;;;;;;;;;5155700;27;20018;-71
2021/11/09 06:41:55;;;;;;;16.35;4.35;;;;;;;;;;5156124;27;20168;-81
2021/11/09 06:44:21;;;;;;;13.13;5.20;;;;;;;;;;5155772;27;20406;-71
2021/11/09 06:46:47;;;;;;;13.75;4.85;;;;;;;;;;5120559;27;20047;-68
2021/11/09 06:49:13;;;;;;;12.75;4.32;;;;;;;;;;5133352;27;20023;-66
2021/11/09 06:51:39;;;;;;;19.10;5.00;;;;;;;;;;5136062;27;20019;-67
2021/11/09 06:54:05;;;;;;;15.82;4.40;;;;;;;;;;5115720;27;20035;-67
2021/11/09 06:56:31;;;;;;;16.02;5.05;;;;;;;;;;5115532;27;20112;-65
2021/11/09 06:58:57;;;;;;;11.52;4.60;;;;;;;;;;5115453;27;20028;-71
2021/11/09 07:01:23;;;;;;;11.45;4.47;;;;;;;;;;5149019;27;20031;-69
2021/11/09 07:03:49;;;;;;;14.18;4.70;;;;;;;;;;5139248;27;20470;-68
2021/11/09 07:06:15;;;;;;;14.15;4.80;;;;;;;;;;5115227;28;20063;-65
2021/11/09 07:08:40;;;;;;;13.23;4.72;;;;;;;;;;5113122;28;20367;-66
2021/11/09 07:11:06;;;;;;;12.05;4.63;;;;;;;;;;5094972;28;20027;-70
2021/11/09 07:13:34;;;;;;;14.05;4.57;;;;;;;;;;5133746;27;20076;-67
2021/11/09 07:16:02;;;;;;;17.13;4.75;;;;;;;;;;5135033;27;20039;-66
2021/11/09 07:18:28;;;;;;;16.33;4.63;;;;;;;;;;5133998;27;20019;-64
2021/11/09 07:20:54;;;;;;;10.57;4.45;;;;;;;;;;5128315;28;20030;-71
2021/11/09 07:23:20;;;;;;;17.60;4.85;;;;;;;;;;5113347;28;20024;-67
2021/11/09 07:25:46;;;;;;;20.90;5.25;;;;;;;;;;5113041;28;20072;-71
2021/11/09 07:28:12;;;;;;;20.75;4.97;;;;;;;;;;5112959;28;20475;-71
2021/11/09 07:30:43;;;;;;;16.33;4.80;;;;;;;;;;5113044;28;20362;-67
2021/11/09 07:33:10;;;;;;;16.25;5.20;;;;;;;;;;5113411;28;20023;-70
2021/11/09 07:35:36;;;;;;;17.38;4.90;;;;;;;;;;5113216;28;20037;-71
2021/11/09 07:38:02;;;;;;;14.25;5.38;;;;;;;;;;5112880;28;20024;-68
2021/11/09 07:40:29;;;;;;;15.55;5.15;;;;;;;;;;5115232;28;20042;-71
2021/11/09 07:42:55;;;;;;;14.18;5.05;;;;;;;;;;5113123;28;20360;-69
2021/11/09 07:45:21;;;;;;;14.90;5.00;;;;;;;;;;5113139;28;20024;-70
2021/11/09 07:47:49;;;;;;;17.88;5.63;;;;;;;;;;5112724;28;20024;-76
2021/11/09 07:50:15;;;;;;;14.40;5.25;;;;;;;;;;5112968;28;20024;-67
2021/11/09 07:52:43;;;;;;;15.40;4.80;;;;;;;;;;5114829;28;20032;-70
2021/11/09 07:55:14;;;;;;;20.33;4.70;;;;;;;;;;5136163;27;20045;-66
2021/11/09 07:57:45;;;;;;;19.33;5.47;;;;;;;;;;5133132;28;20019;-67
2021/11/09 08:03:34;;;;;;;20.77;5.07;;;;;;;;;;5080288;28;20046;-67
2021/11/09 08:06:15;;;;;;;18.20;5.40;;;;;;;;;;5132692;27;20035;-69
2021/11/09 08:08:54;;;;;;;19.13;5.68;;;;;;;;;;5133453;27;20029;-67
2021/11/09 08:11:21;;;;;;;17.27;4.97;;;;;;;;;;5113994;27;20487;-69
2021/11/09 08:13:47;;;;;;;22.88;5.65;;;;;;;;;;5112256;28;20053;-70
2021/11/09 08:16:14;;;;;;;24.55;5.82;;;;;;;;;;5132648;28;20015;-67
2021/11/09 08:18:40;;;;;;;26.00;5.70;;;;;;;;;;5135373;27;20160;-67
2021/11/09 08:21:07;;;;;;;21.23;6.55;;;;;;;;;;5139524;27;20471;-68
2021/11/09 08:23:33;;;;;;;19.83;6.00;;;;;;;;;;5139739;27;20505;-69
2021/11/09 08:25:59;;;;;;;17.63;6.28;;;;;;;;;;5137068;27;20872;-70
2021/11/09 08:28:26;;;;;;;20.17;5.32;;;;;;;;;;5119626;27;20038;-70
2021/11/09 08:30:58;;;;;;;20.20;5.60;;;;;;;;;;5097821;28;20114;-69
2021/11/09 08:33:26;;;;;;;;;;;;;;;;;;5116533;28;20023;-67
2021/11/09 08:35:53;;;;;;;22.25;6.13;;;;;;;;;;5115855;28;19916;-67
2021/11/09 08:38:19;;;;;;;13.00;5.57;;;;;;;;;;5116114;28;20023;-67
2021/11/09 08:40:45;;;;;;;14.25;5.60;;;;;;;;;;5115548;28;20028;-66
2021/11/09 08:43:16;;;;;;;20.17;6.20;;;;;;;;;;5097652;28;20020;-73
2021/11/09 08:48:18;;;;;;;29.73;7.10;;;;;;;;;;5116177;28;20351;-71
2021/11/09 08:50:48;;;;;;;18.25;6.13;;;;;;;;;;5116057;28;20102;-68
2021/11/09 08:53:25;;;;;;;19.05;6.10;;;;;;;;;;5115998;28;20028;-66
2021/11/09 09:06:28;;;;;;;23.77;6.70;;;;;;;;;;5157166;27;20041;-69
2021/11/09 09:08:54;;;;;;;32.72;6.70;;;;;;;;;;5156885;27;20022;-70
2021/11/09 09:11:20;;;;;;;16.67;6.28;;;;;;;;;;5156655;27;20057;-66
2021/11/09 09:13:46;;;;;;;14.63;6.10;;;;;;;;;;5138041;27;20046;-69
2021/11/09 09:16:12;;;;;;;18.13;6.47;;;;;;;;;;5157195;27;20109;-66
2021/11/09 09:18:38;;;;;;;21.88;6.95;;;;;;;;;;5126865;27;20020;-69
2021/11/09 09:21:12;;;;;;;16.98;6.55;;;;;;;;;;5115820;28;20038;-68
2021/11/09 09:23:43;;;;;;;21.13;7.30;;;;;;;;;;5115526;28;20024;-66
2021/11/09 09:26:23;;;;;;;18.17;7.45;;;;;;;;;;5115728;28;20020;-65
2021/11/09 09:29:10;;;;;;;16.75;6.43;;;;;;;;;;5096763;28;20069;-69
2021/11/09 09:52:10;;;;;;;15.05;6.65;;;;;;;;;;5115604;28;20042;-69
2021/11/09 09:56:06;;;;;;;18.30;8.05;;;;;;;;;;5115312;28;20387;-68
2021/11/09 09:58:32;;;;;;;23.35;7.78;;;;;;;;;;5115375;28;20039;-70
2021/11/09 10:00:58;;;;;;;23.92;7.88;;;;;;;;;;5115057;28;20332;-75
2021/11/09 10:03:34;;;;;;;25.45;7.82;;;;;;;;;;5114725;28;20110;-73
2021/11/09 10:06:06;;;;;;;23.38;7.38;;;;;;;;;;5114851;27;20042;-69
2021/11/09 10:08:40;;;;;;;17.40;7.80;;;;;;;;;;5114288;28;20066;-73
2021/11/09 10:11:06;;;;;;;22.48;8.00;;;;;;;;;;5114188;28;20076;-69
2021/11/09 10:13:39;;;;;;;20.50;8.13;;;;;;;;;;5115171;28;20500;-77
2021/11/09 10:16:05;;;;;;;20.95;8.13;;;;;;;;;;5127907;27;20046;-71
2021/11/09 10:18:32;;;;;;;22.55;8.57;;;;;;;;;;5135053;27;20028;-70
2021/11/09 10:21:01;;;;;;;20.38;7.72;;;;;;;;;;5116484;27;20087;-67
2021/11/09 10:23:29;;;;;;;16.52;6.85;;;;;;;;;;5135068;27;20137;-72
2021/11/09 10:26:00;;;;;;;18.52;7.63;;;;;;;;;;5134044;27;20073;-68
2021/11/09 10:28:27;;;;;;;22.30;8.20;;;;;;;;;;5135162;27;20031;-70
2021/11/09 10:30:57;;;;;;;20.55;7.63;;;;;;;;;;5134514;27;20034;-72
2021/11/09 10:33:24;;;;;;;18.42;7.88;;;;;;;;;;5135953;27;20066;-66
2021/11/09 10:35:51;;;;;;;19.95;8.13;;;;;;;;;;5099015;28;20075;-74
2021/11/09 10:38:17;;;;;;;17.55;7.68;;;;;;;;;;5095852;28;20336;-73
2021/11/09 10:40:51;;;;;;;16.88;6.65;;;;;;;;;;5113323;28;20085;-73
2021/11/09 10:43:19;;;;;;;17.30;7.07;;;;;;;;;;5113846;28;20366;-67
2021/11/09 10:45:45;;;;;;;21.02;7.88;;;;;;;;;;5114035;28;20023;-65
2021/11/09 10:48:13;;;;;;;20.33;7.40;;;;;;;;;;5113653;28;20035;-67
2021/11/09 10:50:40;;;;;;;24.17;8.20;;;;;;;;;;5113833;28;20024;-65
2021/11/09 11:06:18;;;;;;;15.43;6.45;;;;;;;;;;5133776;27;20033;-69
2021/11/09 11:08:45;;;;;;;22.42;6.55;;;;;;;;;;5133311;27;20003;-69
2021/11/09 11:11:24;;;;;;;16.35;5.82;;;;;;;;;;5132838;27;20038;-69
2021/11/09 11:13:51;;;;;;;18.55;6.47;;;;;;;;;;5131391;27;20019;-70
2021/11/09 11:16:18;;;;;;;20.80;6.63;;;;;;;;;;5133957;27;20413;-67
2021/11/09 11:18:53;;;;;;;21.58;6.35;;;;;;;;;;5134076;27;20011;-67
2021/11/09 11:21:20;;;;;;;17.88;6.35;;;;;;;;;;5134275;27;20075;-65
2021/11/09 11:23:46;;;;;;;14.93;6.60;;;;;;;;;;5133952;28;20050;-66
2021/11/09 11:26:13;;;;;;;22.85;6.53;;;;;;;;;;5134343;28;20485;-68
2021/11/09 11:28:40;;;;;;;23.52;6.85;;;;;;;;;;5122139;28;20491;-68
2021/11/09 11:31:06;;;;;;;19.48;6.88;;;;;;;;;;5113350;28;20032;-67
2021/11/09 11:33:33;;;;;;;17.85;6.47;;;;;;;;;;5113293;28;20367;-67
2021/11/09 11:35:59;;;;;;;25.08;7.63;;;;;;;;;;5095122;28;20550;-68
2021/11/09 11:38:25;;;;;;;18.88;6.72;;;;;;;;;;5113327;28;20024;-69
2021/11/09 11:40:55;;;;;;;25.80;6.75;;;;;;;;;;5113098;28;20034;-66
2021/11/09 11:43:39;;;;;;;18.23;7.00;;;;;;;;;;5113400;28;20020;-68
2021/11/09 11:46:05;;;;;;;15.80;6.80;;;;;;;;;;5112879;28;20116;-66
2021/11/09 11:48:51;;;;;;;16.10;6.72;;;;;;;;;;5095005;28;20466;-65
2021/11/09 11:51:17;;;;;;;20.35;6.95;;;;;;;;;;5112977;28;20092;-65
2021/11/09 11:53:44;;;;;;;16.63;6.78;;;;;;;;;;5115932;28;20077;-67
2021/11/09 11:56:13;;;;;;;20.63;7.05;;;;;;;;;;5116918;28;20058;-67
2021/11/09 11:58:39;;;;;;;20.67;6.60;;;;;;;;;;5098959;28;20041;-72
2021/11/09 12:01:05;;;;;;;18.38;6.88;;;;;;;;;;5099253;28;20016;-69
2021/11/09 12:03:34;;;;;;;16.58;6.28;;;;;;;;;;5117286;28;20451;-70
2021/11/09 12:06:15;;;;;;;19.52;6.15;;;;;;;;;;5126516;27;20020;-73
2021/11/09 12:08:48;;;;;;;20.20;6.65;;;;;;;;;;5137166;27;20020;-66
2021/11/09 12:11:23;;;;;;;17.65;5.63;;;;;;;;;;5137561;27;20027;-67
2021/11/09 12:13:54;;;;;;;16.13;6.10;;;;;;;;;;5110603;27;20023;-69
2021/11/09 12:16:50;;;;;;;14.10;5.88;;;;;;;;;;5135284;27;20041;-70
2021/11/09 12:19:34;;;;;;;13.38;5.80;;;;;;;;;;5119241;27;20039;-68
2021/11/09 12:22:07;;;;;;;19.33;6.47;;;;;;;;;;5130278;27;20061;-69
2021/11/09 12:24:33;;;;;;;;;;;;;;;;;;5137209;27;20141;-71
2021/11/09 12:26:59;;;;;;;22.98;6.15;;;;;;;;;;5136972;27;20354;-72
2021/11/09 12:29:37;;;;;;;14.90;6.45;;;;;;;;;;5136842;27;20023;-69
2021/11/09 12:32:21;;;;;;;13.73;6.15;;;;;;;;;;5135657;27;20038;-70
2021/11/09 12:35:19;;;;;;;14.00;5.88;;;;;;;;;;5137357;27;20023;-71
2021/11/09 12:37:56;;;;;;;60.33;7.13;;;;;;;;;;5125041;27;20046;-64
2021/11/09 12:40:27;;;;;;;21.95;6.32;;;;;;;;;;5136739;27;20035;-74
2021/11/09 12:43:08;;;;;;;21.17;6.50;;;;;;;;;;5118771;27;20541;-73
2021/11/09 12:45:35;;;;;;;20.20;6.65;;;;;;;;;;5138925;27;20042;-79
2021/11/09 12:48:06;;;;;;;15.85;6.25;;;;;;;;;;5135550;27;20023;-76
2021/11/09 12:50:33;;;;;;;18.55;7.13;;;;;;;;;;5116050;27;20015;-76
2021/11/09 12:53:25;;;;;;;16.35;6.35;;;;;;;;;;5136859;27;20106;-77
2021/11/09 12:56:12;;;;;;;16.85;6.05;;;;;;;;;;5134734;27;20035;-70
2021/11/09 12:58:53;;;;;;;21.02;6.50;;;;;;;;;;5124336;27;20015;-67
2021/11/09 13:01:24;;;;;;;14.48;6.45;;;;;;;;;;5136963;27;20026;-69
2021/11/09 13:04:06;;;;;;;14.10;5.80;;;;;;;;;;5132986;27;20019;-64
2021/11/09 13:06:38;;;;;;;;;;;;;;;;;;5118973;27;20016;-67
2021/11/09 13:09:27;;;;;;;18.90;6.30;;;;;;;;;;5135381;27;19903;-72
2021/11/09 13:11:55;;;;;;;17.75;6.35;;;;;;;;;;5136234;27;20016;-66
2021/11/09 13:14:21;;;;;;;17.77;6.75;;;;;;;;;;5135194;27;20023;-74
2021/11/09 13:16:52;;;;;;;18.70;6.90;;;;;;;;;;5135637;27;20084;-80
2021/11/09 13:19:23;;;;;;;19.13;6.72;;;;;;;;;;5116654;27;20071;-77
2021/11/09 13:22:06;;;;;;;17.13;5.88;;;;;;;;;;5116844;27;20355;-76
2021/11/09 13:24:33;;;;;;;19.83;6.30;;;;;;;;;;5116731;27;20394;-75
2021/11/09 13:26:58;;;;;;;22.48;6.10;;;;;;;;;;5134980;27;20015;-75
2021/11/09 13:29:25;;;;;;;17.30;6.18;;;;;;;;;;5135478;27;20113;-73
2021/11/09 13:31:51;;;;;;;16.25;5.88;;;;;;;;;;5135804;27;20462;-68
2021/11/09 13:34:17;;;;;;;14.18;5.53;;;;;;;;;;5116617;27;20031;-72
2021/11/09 13:36:44;;;;;;;22.13;5.82;;;;;;;;;;5132223;27;20042;-72
2021/11/09 13:39:10;;;;;;;18.50;5.47;;;;;;;;;;5134904;27;20011;-73
2021/11/09 13:41:38;;;;;;;15.52;6.30;;;;;;;;;;5135604;27;20031;-65
2021/11/09 13:44:09;;;;;;;15.90;5.90;;;;;;;;;;5135150;27;20045;-72
2021/11/09 13:46:36;;;;;;;15.95;5.50;;;;;;;;;;5116827;27;20398;-71
2021/11/09 13:49:05;;;;;;;16.10;5.72;;;;;;;;;;5135763;27;20039;-77
2021/11/09 13:51:39;;;;;;;14.63;5.82;;;;;;;;;;5124065;27;20039;-73
2021/11/09 13:54:14;;;;;;;16.52;5.75;;;;;;;;;;5114867;28;20076;-70
2021/11/09 13:56:41;;;;;;;14.32;5.22;;;;;;;;;;5114830;28;20051;-70
2021/11/09 13:59:11;;;;;;;10.38;4.97;;;;;;;;;;5115285;28;20028;-69
2021/11/09 14:15:15;;;;;;;13.63;5.68;;;;;;;;;;5134606;27;20118;-74
2021/11/09 14:17:41;;;;;;;;;;;;;;;;;;5135625;27;20023;-65
2021/11/09 14:20:18;;;;;;;11.90;5.43;;;;;;;;;;5134620;27;19919;-67
2021/11/09 14:22:46;;;;;;;14.27;5.28;;;;;;;;;;5116979;27;20118;-74
2021/11/09 14:25:12;;;;;;;12.85;5.00;;;;;;;;;;5113548;28;20080;-67
2021/11/09 14:27:46;;;;;;;11.10;4.65;;;;;;;;;;5114865;28;20047;-70
2021/11/09 14:30:18;;;;;;;10.85;5.03;;;;;;;;;;5114836;28;20024;-71
2021/11/09 14:32:45;;;;;;;10.50;4.88;;;;;;;;;;5114551;28;20054;-70
2021/11/09 14:35:19;;;;;;;10.35;5.30;;;;;;;;;;5114473;28;20067;-70
2021/11/09 14:37:55;;;;;;;9.27;4.13;;;;;;;;;;5114118;28;20043;-71
2021/11/09 14:40:29;;;;;;;12.48;5.07;;;;;;;;;;5114596;28;20034;-71
2021/11/09 14:42:59;;;;;;;10.52;4.78;;;;;;;;;;5095769;28;20024;-72
2021/11/09 14:45:45;;;;;;;14.98;4.72;;;;;;;;;;5114069;28;20051;-71
2021/11/09 14:48:14;;;;;;;8.90;4.60;;;;;;;;;;5114550;28;20040;-74
2021/11/09 14:53:31;;;;;;;8.82;4.75;;;;;;;;;;5114276;28;20115;-73
2021/11/09 14:56:02;;;;;;;10.77;4.85;;;;;;;;;;5113681;28;20027;-71
2021/11/09 14:58:30;;;;;;;12.00;4.63;;;;;;;;;;5114267;28;20024;-73
2021/11/09 15:01:02;;;;;;;8.10;4.50;;;;;;;;;;5113714;28;20106;-74
2021/11/09 15:03:31;;;;;;;10.00;4.70;;;;;;;;;;5113933;28;20375;-73
2021/11/09 15:06:00;;;;;;;9.68;4.63;;;;;;;;;;5113967;28;20012;-74
2021/11/09 15:08:32;;;;;;;10.07;4.07;;;;;;;;;;5113662;28;20034;-73
2021/11/09 15:11:09;;;;;;;8.68;4.05;;;;;;;;;;5114187;28;20085;-69
2021/11/09 15:29:45;;;;;;;10.57;4.22;;;;;;;;;;5138944;27;20518;-67
2021/11/09 15:32:14;;;;;;;9.68;4.68;;;;;;;;;;5139805;27;20470;-69
2021/11/09 15:37:22;;;;;;;9.23;3.95;;;;;;;;;;5140221;27;20126;-68
2021/11/09 15:39:49;;;;;;;8.90;3.80;;;;;;;;;;5132517;27;20028;-70
2021/11/09 15:42:16;;;;;;;6.72;3.78;;;;;;;;;;5119602;28;20074;-65
2021/11/09 15:44:43;;;;;;;9.43;3.85;;;;;;;;;;5133164;27;20031;-67
2021/11/09 15:47:10;;;;;;;9.50;3.97;;;;;;;;;;5139831;27;20027;-76
2021/11/09 15:49:37;;;;;;;8.65;4.20;;;;;;;;;;5121189;27;20035;-65
2021/11/09 15:52:03;;;;;;;6.93;3.63;;;;;;;;;;5140233;27;20033;-65
2021/11/09 15:54:29;;;;;;;11.32;4.07;;;;;;;;;;5138916;27;20508;-66
2021/11/09 15:56:56;;;;;;;8.20;4.00;;;;;;;;;;5139605;27;20031;-67
2021/11/09 15:59:22;;;;;;;7.57;3.70;;;;;;;;;;5138985;27;20031;-68
2021/11/09 16:01:48;;;;;;;9.13;3.80;;;;;;;;;;5140505;27;20011;-66
2021/11/09 16:04:14;;;;;;;8.82;3.88;;;;;;;;;;5138450;27;20030;-69
2021/11/09 16:06:42;;;;;;;9.50;3.63;;;;;;;;;;5140301;27;20542;-71
2021/11/09 16:09:10;;;;;;;6.10;3.88;;;;;;;;;;5139659;27;20038;-70
2021/11/09 16:11:37;;;;;;;7.63;3.90;;;;;;;;;;5140338;27;20011;-70
2021/11/09 16:14:05;;;;;;;10.85;4.45;;;;;;;;;;5139639;27;20019;-72
2021/11/09 16:16:32;;;;;;;8.10;3.88;;;;;;;;;;5140105;27;20045;-72
2021/11/09 16:18:58;;;;;;;10.13;3.97;;;;;;;;;;5139693;27;20118;-67
2021/11/09 16:21:24;;;;;;;7.72;3.97;;;;;;;;;;5138191;27;20088;-65
2021/11/09 16:23:50;;;;;;;8.38;4.07;;;;;;;;;;5139824;27;20019;-70
2021/11/09 16:26:17;;;;;;;11.07;4.55;;;;;;;;;;5115898;27;20015;-68
2021/11/09 16:28:43;;;;;;;7.10;3.85;;;;;;;;;;5140109;27;20030;-74
2021/11/09 16:31:10;;;;;;;10.60;3.97;;;;;;;;;;5138477;27;20011;-65
2021/11/09 16:33:40;;;;;;;7.82;4.00;;;;;;;;;;5140273;27;20106;-66
2021/11/09 16:38:37;;;;;;;8.38;3.92;;;;;;;;;;5137533;27;20030;-68
2021/11/09 16:41:05;;;;;;;7.32;3.80;;;;;;;;;;5135968;27;20055;-67
2021/11/09 16:43:45;;;;;;;8.75;3.58;;;;;;;;;;5137027;27;20063;-65
2021/11/09 16:46:36;;;;;;;6.72;3.83;;;;;;;;;;5117262;27;20047;-66
2021/11/09 16:51:43;;;;;;;7.82;3.70;;;;;;;;;;5136649;27;20168;-67
2021/11/09 16:54:21;;;;;;;7.10;3.63;;;;;;;;;;5134298;27;20027;-65
2021/11/09 16:59:39;;;;;;;8.50;4.05;;;;;;;;;;5133515;27;20026;-65
2021/11/09 17:17:42;;;;;;;6.47;3.40;;;;;;;;;;5123906;27;20042;-65
2021/11/09 18:20:30;;;;;;;35.90;5.88;;;;;;;;;;5134158;27;20461;-66
2021/11/09 18:22:58;;;;;;;18.05;4.43;;;;;;;;;;5134645;27;20119;-65
2021/11/09 18:25:26;;;;;;;46.58;5.20;;;;;;;;;;5115021;27;20113;-68
2021/11/09 18:27:53;;;;;;;57.53;5.63;;;;;;;;;;5135120;27;20080;-69
2021/11/09 18:30:21;;;;;;;76.22;6.85;;;;;;;;;;5123023;27;20031;-79
2021/11/09 18:32:47;;;;;;;80.40;6.47;;;;;;;;;;5114161;28;20020;-64
2021/11/09 18:35:16;;;;;;;89.35;6.32;;;;;;;;;;5130719;27;20039;-64
2021/11/09 18:37:42;;;;;;;71.18;6.05;;;;;;;;;;5116334;27;20110;-65
2021/11/09 18:40:09;;;;;;;59.00;6.60;;;;;;;;;;5123830;27;20458;-66
2021/11/09 18:42:36;;;;;;;50.05;6.85;;;;;;;;;;5114167;28;20111;-68
2021/11/09 18:45:03;;;;;;;58.50;6.97;;;;;;;;;;5113950;28;20099;-72
2021/11/09 18:47:29;;;;;;;62.50;6.57;;;;;;;;;;5113889;28;20028;-68
2021/11/09 18:49:55;;;;;;;57.80;6.35;;;;;;;;;;5121647;27;20024;-75
2021/11/09 18:52:21;;;;;;;47.13;5.63;;;;;;;;;;5134631;27;20027;-75
2021/11/09 18:54:48;;;;;;;40.25;5.50;;;;;;;;;;5109440;28;20032;-74
2021/11/09 18:57:14;;;;;;;31.38;4.70;;;;;;;;;;5113877;28;20032;-76
2021/11/09 18:59:40;;;;;;;40.88;6.13;;;;;;;;;;5096073;28;20029;-73
2021/11/09 19:02:09;;;;;;;42.83;5.78;;;;;;;;;;5113751;28;20518;-73